Bison, Oklahoma
Current Conditions -  °F | °C
As of 9:55 AM on Friday 24 Oct 2014 (Local Time) from KEND Reporting Station
Scattered Clouds Scattered Clouds  
Wind Chill: 64°   Ceiling: Unl
Heat Index: 64°   Visibility: 10mi
Dew Point: 59°   Wind: 13mph
Humidity: 83%   Direction: 150°SSE
Pressure: 30.08"   Gusts: NA
Location:  36.2°N, 97.89°W
Report Text: KEND 241455Z 15011KT 10SM SCT250 18/15 A3008 RMK AO2A SLP181 51007
Loading
Personal Weather Stations






























Interactive Weather Map
Tropical Storm Tracking
New forecast layout! Learn more

10-Day Weather Forecast

Advertisements
Track Severe Weather on mobile